createdAt,value
2022-10-07T00:00:47.388Z,6.90
2022-10-07T00:03:14.392Z,6.80
2022-10-07T00:05:41.288Z,6.80
2022-10-07T00:08:08.121Z,6.80
2022-10-07T00:10:43.100Z,6.80
2022-10-07T00:13:12.267Z,6.80
2022-10-07T00:15:39.239Z,6.80
2022-10-07T00:18:06.073Z,6.80
2022-10-07T00:20:40.409Z,6.80
2022-10-07T00:23:07.839Z,6.70
2022-10-07T00:25:38.037Z,6.70
2022-10-07T00:28:05.586Z,6.70
2022-10-07T00:30:32.746Z,6.70
2022-10-07T00:32:59.600Z,6.70
2022-10-07T00:35:26.173Z,6.60
2022-10-07T00:37:52.765Z,6.60
2022-10-07T00:40:19.396Z,6.50
2022-10-07T00:42:45.977Z,6.50
2022-10-07T00:45:17.691Z,6.50
2022-10-07T00:47:47.611Z,6.50
2022-10-07T00:50:34.807Z,6.50
2022-10-07T00:53:02.900Z,6.40
2022-10-07T00:55:31.615Z,6.40
2022-10-07T00:58:02.935Z,6.40
2022-10-07T01:00:30.168Z,6.30
2022-10-07T01:02:56.768Z,6.30
2022-10-07T01:05:23.332Z,6.30
2022-10-07T01:07:50.959Z,6.30
2022-10-07T01:10:21.702Z,6.20
2022-10-07T01:13:10.369Z,6.20
2022-10-07T01:15:43.471Z,6.20
2022-10-07T01:18:17.612Z,6.10
2022-10-07T01:20:59.713Z,6.10
2022-10-07T01:23:36.364Z,6.10
2022-10-07T01:26:17.225Z,6.10
2022-10-07T01:29:09.409Z,6.10
2022-10-07T01:31:44.919Z,6.00
2022-10-07T01:34:14.102Z,6.00
2022-10-07T01:36:42.770Z,6.00
2022-10-07T01:39:14.236Z,6.00
2022-10-07T01:41:41.596Z,6.00
2022-10-07T01:44:10.053Z,6.00
2022-10-07T01:46:38.002Z,6.00
2022-10-07T01:49:07.959Z,5.90
2022-10-07T01:51:38.767Z,5.90
2022-10-07T01:54:27.372Z,5.90
2022-10-07T01:57:06.007Z,5.90
2022-10-07T01:59:53.027Z,5.90
2022-10-07T02:02:37.121Z,5.80
2022-10-07T02:05:31.194Z,5.70
2022-10-07T02:08:07.589Z,5.70
2022-10-07T02:10:51.703Z,5.70
2022-10-07T02:13:33.086Z,5.70
2022-10-07T02:16:16.413Z,5.60
2022-10-07T02:18:48.737Z,5.60
2022-10-07T02:21:19.880Z,5.60
2022-10-07T02:23:48.240Z,5.60
2022-10-07T02:26:19.331Z,5.50
2022-10-07T02:28:50.803Z,5.50
2022-10-07T02:31:20.738Z,5.50
2022-10-07T02:33:47.955Z,5.50
2022-10-07T02:36:22.204Z,5.50
2022-10-07T02:38:49.287Z,5.50
2022-10-07T02:41:33.412Z,5.50
2022-10-07T02:44:26.971Z,5.50
2022-10-07T02:47:08.699Z,5.50
2022-10-07T02:49:39.465Z,5.50
2022-10-07T02:52:10.479Z,5.40
2022-10-07T02:54:51.822Z,5.30
2022-10-07T02:57:21.486Z,5.30
2022-10-07T02:59:50.149Z,5.30
2022-10-07T03:02:32.165Z,5.20
2022-10-07T03:04:58.937Z,5.20
2022-10-07T03:07:26.725Z,5.20
2022-10-07T03:09:53.505Z,5.20
2022-10-07T03:12:20.238Z,5.20
2022-10-07T03:14:49.790Z,5.20
2022-10-07T03:17:17.845Z,5.20
2022-10-07T03:19:44.455Z,5.20
2022-10-07T03:22:11.125Z,5.20
2022-10-07T03:24:37.834Z,5.20
2022-10-07T03:27:09.047Z,5.10
2022-10-07T03:29:38.954Z,5.00
2022-10-07T03:32:05.657Z,5.00
2022-10-07T03:34:32.264Z,5.10
2022-10-07T03:36:59.398Z,5.00
2022-10-07T03:39:26.116Z,5.00
2022-10-07T03:41:52.712Z,5.00
2022-10-07T03:44:19.497Z,5.00
2022-10-07T03:46:49.989Z,5.00
2022-10-07T03:49:16.911Z,5.00
2022-10-07T03:51:43.991Z,4.90
2022-10-07T03:54:10.642Z,4.90
2022-10-07T03:56:37.467Z,5.00
2022-10-07T03:59:04.568Z,4.90
2022-10-07T04:01:31.500Z,4.90
2022-10-07T04:04:00.446Z,4.80
2022-10-07T04:06:27.655Z,4.80
2022-10-07T04:08:58.064Z,4.80
2022-10-07T04:11:25.109Z,4.70
2022-10-07T04:13:52.879Z,4.70
2022-10-07T04:16:20.020Z,4.60
2022-10-07T04:18:47.565Z,4.60
2022-10-07T04:21:17.185Z,4.50
2022-10-07T04:23:43.848Z,4.50
2022-10-07T04:26:12.381Z,4.50
2022-10-07T04:28:39.618Z,4.40
2022-10-07T04:31:08.611Z,4.40
2022-10-07T04:33:39.346Z,4.30
2022-10-07T04:36:08.070Z,4.20
2022-10-07T04:38:34.717Z,4.20
2022-10-07T04:41:07.002Z,4.20
2022-10-07T04:43:34.398Z,4.20
2022-10-07T04:46:05.570Z,4.20
2022-10-07T04:48:33.229Z,4.20
2022-10-07T04:51:08.150Z,4.30
2022-10-07T04:53:36.328Z,4.30
2022-10-07T04:56:04.576Z,4.40
2022-10-07T04:58:32.457Z,4.40
2022-10-07T05:01:00.484Z,4.40
2022-10-07T05:03:28.827Z,4.40
2022-10-07T05:06:05.834Z,4.40
2022-10-07T05:08:33.211Z,4.40
2022-10-07T05:11:01.324Z,4.40
2022-10-07T05:13:28.552Z,4.30
2022-10-07T05:15:57.914Z,4.30
2022-10-07T05:18:26.475Z,4.30
2022-10-07T05:20:53.410Z,4.30
2022-10-07T05:23:25.782Z,4.30
2022-10-07T05:25:59.938Z,4.30
2022-10-07T05:28:27.170Z,4.30
2022-10-07T05:31:12.127Z,4.30
2022-10-07T05:33:39.385Z,4.30
2022-10-07T05:36:08.061Z,4.30
2022-10-07T05:38:35.270Z,4.30
2022-10-07T05:41:04.160Z,4.30
2022-10-07T05:43:33.099Z,4.30
2022-10-07T05:46:01.444Z,4.30
2022-10-07T05:48:30.028Z,4.30
2022-10-07T05:50:57.529Z,4.30
2022-10-07T05:53:28.438Z,4.30
2022-10-07T05:55:55.061Z,4.30
2022-10-07T05:58:22.743Z,4.30
2022-10-07T06:01:01.019Z,4.40
2022-10-07T06:03:30.552Z,4.50
2022-10-07T06:05:57.232Z,4.50
2022-10-07T06:08:24.213Z,4.50
2022-10-07T06:11:09.657Z,4.60
2022-10-07T06:13:36.658Z,4.60
2022-10-07T06:16:08.721Z,4.70
2022-10-07T06:18:39.349Z,4.70
2022-10-07T06:21:06.352Z,4.80
2022-10-07T06:23:34.008Z,4.90
2022-10-07T06:26:06.184Z,4.90
2022-10-07T06:28:42.401Z,5.00
2022-10-07T06:31:11.754Z,5.00
2022-10-07T06:33:38.646Z,5.10
2022-10-07T06:36:07.725Z,5.10
2022-10-07T06:38:34.684Z,5.20
2022-10-07T06:41:04.372Z,5.30
2022-10-07T06:43:33.702Z,5.40
2022-10-07T06:46:04.725Z,5.50
2022-10-07T06:48:33.654Z,5.50
2022-10-07T06:51:04.369Z,5.60
2022-10-07T06:53:31.710Z,5.70
2022-10-07T06:56:02.670Z,5.80
2022-10-07T06:58:29.643Z,5.80
2022-10-07T07:00:57.741Z,5.90
2022-10-07T07:03:24.775Z,6.00
2022-10-07T07:05:54.567Z,6.10
2022-10-07T07:08:25.337Z,6.20
2022-10-07T07:10:51.899Z,6.40
2022-10-07T07:13:18.548Z,6.60
2022-10-07T07:15:55.320Z,6.80
2022-10-07T07:18:22.026Z,6.90
2022-10-07T07:20:48.669Z,7.00
2022-10-07T07:23:15.299Z,7.20
2022-10-07T07:25:45.979Z,7.30
2022-10-07T07:28:15.228Z,7.50
2022-10-07T07:30:42.532Z,7.70
2022-10-07T07:33:09.467Z,8.00
2022-10-07T07:35:39.922Z,8.30
2022-10-07T07:38:06.632Z,8.50
2022-10-07T07:40:37.486Z,8.90
2022-10-07T07:43:05.220Z,9.00
2022-10-07T07:45:32.991Z,9.30
2022-10-07T07:48:00.370Z,9.60
2022-10-07T07:50:27.413Z,9.90
2022-10-07T07:52:57.295Z,10.10
2022-10-07T07:55:24.420Z,10.30
2022-10-07T07:57:50.982Z,10.60
2022-10-07T08:00:18.510Z,10.80
2022-10-07T08:02:45.166Z,11.10
2022-10-07T08:05:11.899Z,11.30
2022-10-07T08:07:38.521Z,11.60
2022-10-07T08:10:05.683Z,11.80
2022-10-07T08:12:33.169Z,12.00
2022-10-07T08:15:00.307Z,12.20
2022-10-07T08:17:26.892Z,12.40
2022-10-07T08:19:55.234Z,12.70
2022-10-07T08:22:22.055Z,12.90
2022-10-07T08:24:48.637Z,13.10
2022-10-07T08:27:17.270Z,13.40
2022-10-07T08:29:44.098Z,13.60
2022-10-07T08:32:10.723Z,13.80
2022-10-07T08:34:37.332Z,14.00
2022-10-07T08:37:04.074Z,14.10
2022-10-07T08:39:31.129Z,14.40
2022-10-07T08:42:15.204Z,14.60
2022-10-07T08:44:44.885Z,14.80
2022-10-07T08:47:23.889Z,15.00
2022-10-07T08:50:06.158Z,15.20
2022-10-07T08:52:45.517Z,15.30
2022-10-07T08:55:26.077Z,15.60
2022-10-07T08:58:22.253Z,15.70
2022-10-07T09:01:22.308Z,15.80
2022-10-07T09:04:23.537Z,15.80
2022-10-07T09:07:09.502Z,15.90
2022-10-07T09:09:47.099Z,15.90
2022-10-07T09:12:21.998Z,16.10
2022-10-07T09:14:52.801Z,16.10
2022-10-07T09:17:35.021Z,16.10
2022-10-07T09:20:21.138Z,16.00
2022-10-07T09:22:53.236Z,16.10
2022-10-07T09:25:22.536Z,16.20
2022-10-07T09:27:50.427Z,16.20
2022-10-07T09:30:17.708Z,16.00
2022-10-07T09:32:47.787Z,15.90
2022-10-07T09:35:17.467Z,15.80
2022-10-07T09:38:03.334Z,15.70
2022-10-07T09:41:04.885Z,15.60
2022-10-07T09:43:33.205Z,15.50
2022-10-07T09:46:00.991Z,15.60
2022-10-07T09:48:32.605Z,15.50
2022-10-07T09:51:17.087Z,15.50
2022-10-07T09:54:03.860Z,15.50
2022-10-07T09:56:37.625Z,15.50
2022-10-07T09:59:22.544Z,15.40
2022-10-07T10:01:55.013Z,15.50
2022-10-07T10:04:33.426Z,15.60
2022-10-07T10:07:22.178Z,15.70
2022-10-07T10:09:57.112Z,15.70
2022-10-07T10:12:25.214Z,15.70
2022-10-07T10:14:57.937Z,15.80
2022-10-07T10:17:38.342Z,15.80
2022-10-07T10:20:23.406Z,15.90
2022-10-07T10:22:51.696Z,16.00
2022-10-07T10:25:48.574Z,16.20
2022-10-07T10:28:27.977Z,16.20
2022-10-07T10:31:07.719Z,16.30
2022-10-07T10:33:47.049Z,16.30
2022-10-07T10:36:22.530Z,16.40
2022-10-07T10:39:06.161Z,16.50
2022-10-07T10:41:54.638Z,16.70
2022-10-07T10:44:33.942Z,16.90
2022-10-07T10:47:22.739Z,17.10
2022-10-07T10:50:13.893Z,17.20
2022-10-07T10:53:02.833Z,17.40
2022-10-07T10:55:49.008Z,17.50
2022-10-07T10:58:25.630Z,17.70
2022-10-07T11:01:16.749Z,17.90
2022-10-07T11:03:49.177Z,18.20
2022-10-07T11:06:18.135Z,18.40
2022-10-07T11:08:47.392Z,18.70
2022-10-07T11:11:19.777Z,18.90
2022-10-07T11:13:56.692Z,19.30
2022-10-07T11:16:49.760Z,19.70
2022-10-07T11:19:26.676Z,19.90
2022-10-07T11:21:56.221Z,20.20
2022-10-07T11:24:30.099Z,20.40
2022-10-07T11:27:03.534Z,20.60
2022-10-07T11:29:58.402Z,20.80
2022-10-07T11:32:45.156Z,20.90
2022-10-07T11:35:32.064Z,21.00
2022-10-07T11:38:10.547Z,21.40
2022-10-07T11:40:50.954Z,21.70
2022-10-07T11:43:44.624Z,21.50
2022-10-07T11:46:23.389Z,21.60
2022-10-07T11:49:29.164Z,21.50
2022-10-07T11:52:07.503Z,21.40
2022-10-07T11:54:46.981Z,21.70
2022-10-07T11:57:26.811Z,22.00
2022-10-07T12:00:21.985Z,22.00
2022-10-07T12:02:49.681Z,22.00
2022-10-07T12:05:34.947Z,22.10
2022-10-07T12:08:31.741Z,22.00
2022-10-07T12:11:14.389Z,21.80
2022-10-07T12:13:49.653Z,21.70
2022-10-07T12:16:28.481Z,21.90
2022-10-07T12:19:06.374Z,21.90
2022-10-07T12:22:04.169Z,21.90
2022-10-07T12:24:33.065Z,22.20
2022-10-07T12:27:14.217Z,22.50
2022-10-07T12:30:02.003Z,22.10
2022-10-07T12:32:56.298Z,22.10
2022-10-07T12:35:34.381Z,21.80
2022-10-07T12:38:30.130Z,21.80
2022-10-07T12:41:06.277Z,22.00
2022-10-07T12:43:51.461Z,22.10
2022-10-07T12:46:20.624Z,22.20
2022-10-07T12:49:14.051Z,22.20
2022-10-07T12:51:41.622Z,22.10
2022-10-07T12:54:20.438Z,22.00
2022-10-07T12:56:48.567Z,22.00
2022-10-07T12:59:47.941Z,21.90
2022-10-07T13:02:40.118Z,21.80
2022-10-07T13:05:28.541Z,21.90
2022-10-07T13:08:07.454Z,21.90
2022-10-07T13:11:11.453Z,22.00
2022-10-07T13:14:10.597Z,22.00
2022-10-07T13:16:49.593Z,21.80
2022-10-07T13:19:19.326Z,21.60
2022-10-07T13:22:01.105Z,21.70
2022-10-07T13:24:28.818Z,21.50
2022-10-07T13:26:56.671Z,21.30
2022-10-07T13:29:27.285Z,21.30
2022-10-07T13:32:07.736Z,21.20
2022-10-07T13:34:35.064Z,21.10
2022-10-07T13:37:02.802Z,21.00
2022-10-07T13:39:30.652Z,21.20
2022-10-07T13:41:59.667Z,21.10
2022-10-07T13:44:29.892Z,21.10
2022-10-07T13:47:05.978Z,21.10
2022-10-07T13:49:39.840Z,21.00
2022-10-07T13:52:16.609Z,20.90
2022-10-07T13:54:51.012Z,20.90
2022-10-07T13:57:21.680Z,20.90
2022-10-07T13:59:49.311Z,20.90
2022-10-07T14:02:16.440Z,20.90
2022-10-07T14:04:59.935Z,20.80
2022-10-07T14:07:28.626Z,20.90
2022-10-07T14:09:58.231Z,21.00
2022-10-07T14:12:47.965Z,20.90
2022-10-07T14:15:33.390Z,20.80
2022-10-07T14:18:11.069Z,20.60
2022-10-07T14:20:41.413Z,20.70
2022-10-07T14:23:25.810Z,20.40
2022-10-07T14:25:55.540Z,20.40
2022-10-07T14:28:25.179Z,20.40
2022-10-07T14:31:25.862Z,20.40
2022-10-07T14:34:42.309Z,20.30
2022-10-07T14:37:17.595Z,20.00
2022-10-07T14:39:49.632Z,19.80
2022-10-07T14:42:25.458Z,19.60
2022-10-07T14:44:54.753Z,19.50
2022-10-07T14:47:24.408Z,19.40
2022-10-07T14:49:55.366Z,19.20
2022-10-07T14:52:35.147Z,19.20
2022-10-07T14:55:16.887Z,19.20
2022-10-07T14:57:44.096Z,19.00
2022-10-07T15:00:18.312Z,18.90
2022-10-07T15:02:45.497Z,18.80
2022-10-07T15:05:13.860Z,18.70
2022-10-07T15:07:42.315Z,18.60
2022-10-07T15:10:20.264Z,18.50
2022-10-07T15:12:47.897Z,18.50
2022-10-07T15:15:15.934Z,18.30
2022-10-07T15:17:43.856Z,18.20
2022-10-07T15:20:13.830Z,18.20
2022-10-07T15:22:40.678Z,18.10
2022-10-07T15:25:09.205Z,18.10
2022-10-07T15:27:36.709Z,18.00
2022-10-07T15:30:04.409Z,18.00
2022-10-07T15:32:31.086Z,17.90
2022-10-07T15:34:58.103Z,17.90
2022-10-07T15:37:27.377Z,17.80
2022-10-07T15:39:54.866Z,17.70
2022-10-07T15:42:24.512Z,17.60
2022-10-07T15:44:51.843Z,17.40
2022-10-07T15:47:18.618Z,17.30
2022-10-07T15:49:45.231Z,17.10
2022-10-07T15:52:12.167Z,17.10
2022-10-07T15:54:39.206Z,16.90
2022-10-07T15:57:06.269Z,16.80
2022-10-07T15:59:33.000Z,16.60
2022-10-07T16:01:59.867Z,16.40
2022-10-07T16:04:27.043Z,16.30
2022-10-07T16:06:53.806Z,16.10
2022-10-07T16:09:21.963Z,15.90
2022-10-07T16:11:49.101Z,15.80
2022-10-07T16:14:16.303Z,15.60
2022-10-07T16:16:43.100Z,15.50
2022-10-07T16:19:11.610Z,15.30
2022-10-07T16:21:40.774Z,15.20
2022-10-07T16:24:12.180Z,15.10
2022-10-07T16:26:38.872Z,15.00
2022-10-07T16:29:26.848Z,14.80
2022-10-07T16:31:58.204Z,14.70
2022-10-07T16:34:27.684Z,14.50
2022-10-07T16:36:55.362Z,14.40
2022-10-07T16:39:22.558Z,14.20
2022-10-07T16:41:53.884Z,14.10
2022-10-07T16:44:21.303Z,14.00
2022-10-07T16:46:48.554Z,13.90
2022-10-07T16:49:17.258Z,13.80
2022-10-07T16:51:45.065Z,13.60
2022-10-07T16:54:15.861Z,13.50
2022-10-07T16:56:47.015Z,13.40
2022-10-07T16:59:21.320Z,13.20
2022-10-07T17:01:50.298Z,13.10
2022-10-07T17:04:17.627Z,13.00
2022-10-07T17:06:46.123Z,12.90
2022-10-07T17:09:13.811Z,12.80
2022-10-07T17:11:41.166Z,12.70
2022-10-07T17:14:12.160Z,12.60
2022-10-07T17:16:53.001Z,12.40
2022-10-07T17:19:22.566Z,12.30
2022-10-07T17:21:50.742Z,12.20
2022-10-07T17:24:19.338Z,12.10
2022-10-07T17:26:46.618Z,12.10
2022-10-07T17:29:16.480Z,12.00
2022-10-07T17:31:43.577Z,11.90
2022-10-07T17:34:11.587Z,11.80
2022-10-07T17:36:39.177Z,11.70
2022-10-07T17:39:06.239Z,11.60
2022-10-07T17:41:35.008Z,11.60
2022-10-07T17:44:05.165Z,11.50
2022-10-07T17:46:36.479Z,11.50
2022-10-07T17:49:03.921Z,11.40
2022-10-07T17:51:32.002Z,11.30
2022-10-07T17:54:00.221Z,11.20
2022-10-07T17:56:28.841Z,11.10
2022-10-07T17:58:56.838Z,11.10
2022-10-07T18:01:28.634Z,11.00
2022-10-07T18:03:57.620Z,10.90
2022-10-07T18:06:26.219Z,10.90
2022-10-07T18:08:53.058Z,10.90
2022-10-07T18:11:19.700Z,10.80
2022-10-07T18:14:04.948Z,10.80
2022-10-07T18:16:33.526Z,10.80
2022-10-07T18:19:00.639Z,10.70
2022-10-07T18:21:30.385Z,10.60
2022-10-07T18:23:57.464Z,10.60
2022-10-07T18:26:24.530Z,10.60
2022-10-07T18:28:51.341Z,10.60
2022-10-07T18:31:18.751Z,10.50
2022-10-07T18:33:46.199Z,10.50
2022-10-07T18:36:15.867Z,10.40
2022-10-07T18:38:44.374Z,10.40
2022-10-07T18:41:17.237Z,10.30
2022-10-07T18:43:48.134Z,10.20
2022-10-07T18:46:17.335Z,10.20
2022-10-07T18:48:45.453Z,10.10
2022-10-07T18:51:13.010Z,10.10
2022-10-07T18:53:42.074Z,10.10
2022-10-07T18:56:12.119Z,10.00
2022-10-07T18:58:41.405Z,10.00
2022-10-07T19:01:10.776Z,9.90
2022-10-07T19:03:37.543Z,9.90
2022-10-07T19:06:25.497Z,9.80
2022-10-07T19:08:56.402Z,9.80
2022-10-07T19:11:25.373Z,9.70
2022-10-07T19:13:56.381Z,9.60
2022-10-07T19:16:25.465Z,9.50
2022-10-07T19:18:54.453Z,9.50
2022-10-07T19:21:21.973Z,9.50
2022-10-07T19:23:50.275Z,9.50
2022-10-07T19:26:21.348Z,9.40
2022-10-07T19:28:49.798Z,9.40
2022-10-07T19:31:17.644Z,9.30
2022-10-07T19:33:46.033Z,9.30
2022-10-07T19:36:14.384Z,9.20
2022-10-07T19:38:44.210Z,9.20
2022-10-07T19:41:15.313Z,9.20
2022-10-07T19:43:43.446Z,9.20
2022-10-07T19:46:10.542Z,9.20
2022-10-07T19:48:38.605Z,9.20
2022-10-07T19:51:12.173Z,9.10
2022-10-07T19:53:46.600Z,9.00
2022-10-07T19:56:22.591Z,9.10
2022-10-07T19:58:54.749Z,9.00
2022-10-07T20:01:24.237Z,9.00
2022-10-07T20:04:02.715Z,8.90
2022-10-07T20:06:29.787Z,8.90
2022-10-07T20:08:57.207Z,8.90
2022-10-07T20:11:25.044Z,8.80
2022-10-07T20:13:54.255Z,8.80
2022-10-07T20:16:24.189Z,8.80
2022-10-07T20:18:56.941Z,8.70
2022-10-07T20:21:23.991Z,8.70
2022-10-07T20:23:53.800Z,8.70
2022-10-07T20:26:33.150Z,8.70
2022-10-07T20:29:01.436Z,8.70
2022-10-07T20:31:31.176Z,8.60
2022-10-07T20:34:00.046Z,8.70
2022-10-07T20:36:31.600Z,8.70
2022-10-07T20:39:37.491Z,8.60
2022-10-07T20:42:25.730Z,8.60
2022-10-07T20:44:53.442Z,8.60
2022-10-07T20:47:21.647Z,8.60
2022-10-07T20:49:50.739Z,8.60
2022-10-07T20:52:20.361Z,8.50
2022-10-07T20:54:47.630Z,8.50
2022-10-07T20:57:16.353Z,8.40
2022-10-07T20:59:43.402Z,8.40
2022-10-07T21:02:11.762Z,8.40
2022-10-07T21:04:38.443Z,8.40
2022-10-07T21:07:05.513Z,8.40
2022-10-07T21:09:36.100Z,8.40
2022-10-07T21:12:05.012Z,8.40
2022-10-07T21:14:31.591Z,8.40
2022-10-07T21:16:58.859Z,8.40
2022-10-07T21:19:25.796Z,8.40
2022-10-07T21:21:52.420Z,8.40
2022-10-07T21:24:19.224Z,8.40
2022-10-07T21:26:46.889Z,8.40
2022-10-07T21:29:14.022Z,8.30
2022-10-07T21:31:41.068Z,8.40
2022-10-07T21:34:08.670Z,8.40
2022-10-07T21:36:38.184Z,8.40
2022-10-07T21:39:05.726Z,8.40
2022-10-07T21:41:34.873Z,8.40
2022-10-07T21:44:03.811Z,8.40
2022-10-07T21:46:31.820Z,8.30
2022-10-07T21:48:58.673Z,8.30
2022-10-07T21:51:27.207Z,8.20
2022-10-07T21:53:55.514Z,8.20
2022-10-07T21:56:22.137Z,8.20
2022-10-07T21:58:53.243Z,8.20
2022-10-07T22:01:22.664Z,8.20
2022-10-07T22:03:54.995Z,8.20
2022-10-07T22:06:42.082Z,8.20
2022-10-07T22:09:09.278Z,8.20
2022-10-07T22:11:36.380Z,8.10
2022-10-07T22:14:03.369Z,8.10
2022-10-07T22:16:30.993Z,8.10
2022-10-07T22:18:57.844Z,8.10
2022-10-07T22:21:27.080Z,8.10
2022-10-07T22:24:02.750Z,8.10
2022-10-07T22:26:32.562Z,8.10
2022-10-07T22:28:59.534Z,8.10
2022-10-07T22:31:26.620Z,8.00
2022-10-07T22:33:56.181Z,8.00
2022-10-07T22:36:23.165Z,8.00
2022-10-07T22:38:50.172Z,8.00
2022-10-07T22:41:19.281Z,8.00
2022-10-07T22:43:47.278Z,7.90
2022-10-07T22:46:21.325Z,7.90
2022-10-07T22:48:49.099Z,7.90
2022-10-07T22:51:16.477Z,7.80
2022-10-07T22:53:48.012Z,7.80
2022-10-07T22:56:17.526Z,7.80
2022-10-07T22:58:50.383Z,7.80
2022-10-07T23:01:17.675Z,7.80
2022-10-07T23:03:44.838Z,7.80
2022-10-07T23:06:13.985Z,7.80
2022-10-07T23:08:40.949Z,7.70
2022-10-07T23:11:08.465Z,7.70
2022-10-07T23:13:36.399Z,7.70
2022-10-07T23:16:12.030Z,7.60
2022-10-07T23:18:42.989Z,7.60
2022-10-07T23:21:12.413Z,7.60
2022-10-07T23:23:41.095Z,7.60
2022-10-07T23:26:18.793Z,7.60
2022-10-07T23:28:49.287Z,7.60
2022-10-07T23:31:18.440Z,7.50
2022-10-07T23:33:49.411Z,7.40
2022-10-07T23:36:17.686Z,7.40
2022-10-07T23:38:44.696Z,7.40
2022-10-07T23:41:12.830Z,7.30
2022-10-07T23:43:39.750Z,7.30
2022-10-07T23:46:09.898Z,7.30
2022-10-07T23:48:36.609Z,7.30
2022-10-07T23:51:04.811Z,7.30
2022-10-07T23:53:32.328Z,7.30
2022-10-07T23:55:59.465Z,7.30
2022-10-07T23:58:27.788Z,7.30
